Strona główna
METAR-TAF:

METAR-TAF

Lotnisko :

Port lotniczy Mauritius

Mauritius, Mauritius

Szerokość geograficzna: 20-26S, Długość geograficzna: 057-40E, wysokość: 55 m

Aktualna obserwacja pogody

Raport powstał 59 minut temu, godzina 18:00 UTC
Wiatr 3 kt od północ
Temperatura 27°C
Wilgotność 89%
Ciśnienie 1012 hPa
Widzialność 10 km lub więcej
Mało chmury na wysokości 1800 ft

METAR: FIMP 191800Z 01003KT 9999 FEW018 27/25 Q1012

czas: 22:59 (18:59 UTC)

Prognoza

Raport powstał 1 godzina i 54 minut temu, godzina 17:05 UTC
Prognoza ważna od 19 godzina 18 UTC do 21 godzina 00 UTC
Wiatr 3 kt od północny wschód
Widzialność 10 km lub więcej
Rozproszone chmury na wysokości 1700 ft
Stopniowe zmiany
od 19 godzina 20 UTC do 19 godzina 22 UTC
Wiatr 3 kt od północno-północny zachód
Stopniowe zmiany
od 20 godzina 03 UTC do 20 godzina 05 UTC
Wiatr 5 kt od wschodnio-północny wschód

TAF: FIMP 191705Z 1918/2100 04003KT 9999 SCT017 BECMG 1920/1922 33003KT BECMG 2003/2005 06005KT

Obserwacja i prognoza pogody dla ponad 4000 lotnisk (raport METAR i TAF).

Dostępne stacje oznaczono żółtymi i czerwonymi punktami na mapie.

Najedź kursorem aby zobaczyć nazwę stacji.

Kliknij aby zobaczyć obserwacje i prognozy pogody.

Aby zmienić mapę: kliknij na zielony przycisk z czarnym krzyżykiem, aby powiększyć; na zielony przycisk z myślnikiem, aby pomniejszyć; na zielone strzałki, aby przejść do map sąsiednich.


METAR-TAF: